X  Chiuso Dati meteorologici dell'aviazione (METAR)     YMML Melbourne International Airport
Temperatura
14°C Temperatura
12°C Punto di rugiada
88% Umidità



Vento
5 MPH
8 KM/O
2 M/S
4 KTS



240°
OSO
Condizioni attuali

Parzialmente nuvoloso Parzialmente nuvoloso
Pressione 1015.92 (hPa) - 30 (inHg)
Visibilità 6 (miglio) - 9.7 (km)
Aeroporto
Codice-Aeroporto YMML

Posizione: Melbourne International Airport
Distanza: 18 (mi)

Metar:
YMML 012000Z 24004KT 9999 FEW025 BKN044 14/12 Q1016 RF00.0/000.0

Ore: 02-03-2024 07:00 AEDT